Time;durP1;ratioP1;P1;durP2;ratioP2;P2;SDS_P1;SDS_P2;PMS_P1;PMS_P2;Temp;Humidity;BMP_temperature;BMP_pressure;BME280_temperature;BME280_humidity;BME280_pressure;Samples;Min_cycle;Max_cycle;Signal;HPM_P1;HPM_P2
2022/06/21 00:01:01;;;;;;;6.20;1.50;;;10.80;99.90;;;;;;5070445;28;20044;-74
2022/06/21 00:03:29;;;;;;;5.78;1.65;;;10.80;99.90;;;;;;5052579;28;20052;-74
2022/06/21 00:05:55;;;;;;;12.35;2.22;;;10.80;99.90;;;;;;5070815;28;20048;-74
2022/06/21 00:08:24;;;;;;;11.77;2.20;;;10.70;99.90;;;;;;5070652;28;20105;-74
2022/06/21 00:10:51;;;;;;;15.82;3.22;;;10.70;99.90;;;;;;5070419;28;20510;-74
2022/06/21 00:13:23;;;;;;;9.07;1.85;;;11.10;99.90;;;;;;5070151;28;20055;-74
2022/06/21 00:15:53;;;;;;;6.90;1.60;;;10.70;99.90;;;;;;5070484;28;20055;-74
2022/06/21 00:18:20;;;;;;;5.68;1.70;;;11.00;99.90;;;;;;5052370;28;20040;-74
2022/06/21 00:20:48;;;;;;;6.55;1.77;;;10.70;99.90;;;;;;5070605;28;20097;-74
2022/06/21 00:23:17;;;;;;;6.10;1.67;;;10.60;99.90;;;;;;5070426;28;20590;-73
2022/06/21 00:25:46;;;;;;;5.32;1.52;;;10.60;99.90;;;;;;5070422;28;20450;-74
2022/06/21 00:28:13;;;;;;;12.15;2.05;;;11.10;99.90;;;;;;5070142;28;20543;-74
2022/06/21 00:30:39;;;;;;;8.45;2.35;;;10.50;99.90;;;;;;5069831;28;20052;-74
2022/06/21 00:33:11;;;;;;;5.93;1.73;;;10.50;99.90;;;;;;5070218;28;20106;-74
2022/06/21 00:35:36;;;;;;;10.98;2.33;;;10.50;99.90;;;;;;5070503;28;20112;-74
2022/06/21 00:38:02;;;;;;;6.50;1.60;;;10.40;99.90;;;;;;5070469;28;20464;-75
2022/06/21 00:40:30;;;;;;;5.68;2.20;;;10.40;99.90;;;;;;5070739;28;20429;-74
2022/06/21 00:43:18;;;;;;;4.70;1.77;;;10.40;99.90;;;;;;5070225;28;20086;-74
2022/06/21 00:45:47;;;;;;;8.70;1.55;;;10.40;99.90;;;;;;5069765;28;20037;-75
2022/06/21 00:48:26;;;;;;;6.35;1.52;;;10.30;99.90;;;;;;5070341;28;20060;-76
2022/06/21 00:50:57;;;;;;;8.00;1.80;;;10.50;99.90;;;;;;5069787;28;20538;-75
2022/06/21 00:54:18;;;;;;;9.20;2.00;;;10.30;99.90;;;;;;5070271;28;20044;-75
2022/06/21 00:57:13;;;;;;;3.92;1.42;;;10.20;99.90;;;;;;4985620;28;20076;-75
2022/06/21 00:59:38;;;;;;;4.38;1.30;;;10.10;99.90;;;;;;4934036;29;20051;-75
2022/06/21 01:02:17;;;;;;;6.63;1.27;;;10.00;99.90;;;;;;4934173;29;20518;-74
2022/06/21 01:04:48;;;;;;;5.85;1.63;;;9.90;99.90;;;;;;4934094;29;20095;-74
2022/06/21 01:07:14;;;;;;;6.00;1.42;;;9.90;99.90;;;;;;4918057;29;20056;-75
2022/06/21 01:09:43;;;;;;;4.93;1.42;;;9.90;99.90;;;;;;4933956;29;20134;-74
2022/06/21 01:12:11;;;;;;;7.63;2.17;;;9.80;99.90;;;;;;4918061;29;20056;-74
2022/06/21 01:14:46;;;;;;;4.55;1.55;;;9.70;99.90;;;;;;4918338;29;20055;-74
2022/06/21 01:17:12;;;;;;;5.65;1.40;;;9.60;99.90;;;;;;4933646;29;20649;-74
2022/06/21 01:19:44;;;;;;;3.75;1.75;;;9.60;99.90;;;;;;4933716;29;20431;-74
2022/06/21 01:22:24;;;;;;;7.05;2.03;;;10.00;99.90;;;;;;4933777;29;20594;-75
2022/06/21 01:25:26;;;;;;;6.68;1.98;;;9.60;99.90;;;;;;4933934;29;20063;-74
2022/06/21 01:27:55;;;;;;;4.95;2.30;;;9.70;99.90;;;;;;4933996;29;20059;-75
2022/06/21 01:30:34;;;;;;;8.07;1.90;;;9.70;99.90;;;;;;4933778;29;20233;-74
2022/06/21 01:33:01;;;;;;;5.32;1.83;;;9.70;99.90;;;;;;4981342;28;20062;-74
2022/06/21 01:35:41;;;;;;;4.55;1.70;;;9.70;99.90;;;;;;5011227;28;20053;-74
2022/06/21 01:38:12;;;;;;;3.85;1.40;;;9.60;99.90;;;;;;5054817;28;20053;-75
2022/06/21 01:40:44;;;;;;;5.20;1.77;;;9.60;99.90;;;;;;5073224;28;20040;-75
2022/06/21 01:43:14;;;;;;;8.70;2.10;;;10.10;99.90;;;;;;5073295;28;20040;-75
2022/06/21 01:45:46;;;;;;;3.95;1.80;;;9.40;99.90;;;;;;5072930;28;20072;-75
2022/06/21 01:48:23;;;;;;;5.35;1.45;;;9.40;99.90;;;;;;5072750;28;20049;-74
2022/06/21 01:50:53;;;;;;;6.50;1.60;;;9.40;99.90;;;;;;5072956;28;20124;-74
2022/06/21 01:53:21;;;;;;;4.78;1.42;;;9.30;99.90;;;;;;5073458;28;20051;-74
2022/06/21 01:55:57;;;;;;;6.13;2.00;;;9.40;99.90;;;;;;5073124;28;20119;-75
2022/06/21 01:58:30;;;;;;;3.22;1.67;;;9.20;99.90;;;;;;5072765;28;20483;-74
2022/06/21 02:01:00;;;;;;;3.97;1.83;;;9.10;99.90;;;;;;5054654;28;20170;-75
2022/06/21 02:03:31;;;;;;;5.05;1.30;;;9.10;99.90;;;;;;5072559;28;20090;-75
2022/06/21 02:06:02;;;;;;;4.22;1.75;;;9.10;99.90;;;;;;5054856;28;20052;-75
2022/06/21 02:08:41;;;;;;;5.18;1.75;;;9.00;99.90;;;;;;5071717;28;20048;-75
2022/06/21 02:11:14;;;;;;;4.72;1.50;;;9.00;99.90;;;;;;5072505;28;20084;-75
2022/06/21 02:13:47;;;;;;;4.13;1.58;;;9.10;99.90;;;;;;5072628;28;20044;-75
2022/06/21 02:16:18;;;;;;;2.58;1.58;;;8.90;99.90;;;;;;5072551;28;20051;-75
2022/06/21 02:18:50;;;;;;;3.88;1.65;;;9.10;99.90;;;;;;5072376;28;20080;-74
2022/06/21 02:21:22;;;;;;;4.32;1.70;;;8.80;99.90;;;;;;5072524;28;20048;-75
2022/06/21 02:23:52;;;;;;;3.60;1.88;;;9.00;99.90;;;;;;5072482;28;20044;-74
2022/06/21 02:26:21;;;;;;;3.70;1.33;;;8.70;99.90;;;;;;5072059;28;20083;-74
2022/06/21 02:28:48;;;;;;;4.20;1.77;;;8.80;99.90;;;;;;5072035;28;20549;-74
2022/06/21 02:31:14;;;;;;;3.47;1.65;;;8.70;99.90;;;;;;5072272;28;20097;-75
2022/06/21 02:33:41;;;;;;;2.75;1.48;;;8.60;99.90;;;;;;5071899;28;20052;-74
2022/06/21 02:36:21;;;;;;;2.78;1.50;;;8.50;99.90;;;;;;5054370;28;20074;-74
2022/06/21 02:38:54;;;;;;;5.47;1.65;;;8.50;99.90;;;;;;5054036;28;20522;-75
2022/06/21 02:41:41;;;;;;;8.13;2.90;;;8.40;99.90;;;;;;5072267;28;20052;-75
2022/06/21 02:44:17;;;;;;;3.67;1.60;;;8.70;99.90;;;;;;5071890;28;20143;-74
2022/06/21 02:46:47;;;;;;;3.15;1.85;;;8.50;99.90;;;;;;5071845;28;20534;-75
2022/06/21 02:49:47;;;;;;;4.15;1.67;;;8.50;99.90;;;;;;5071377;28;20088;-74
2022/06/21 02:52:21;;;;;;;6.40;1.98;;;8.50;99.90;;;;;;5071757;28;20056;-75
2022/06/21 02:55:01;;;;;;;3.95;2.30;;;8.50;99.90;;;;;;5071796;28;20036;-75
2022/06/21 02:57:43;;;;;;;4.78;1.63;;;8.50;99.90;;;;;;5071468;28;20514;-75
2022/06/21 03:00:14;;;;;;;7.18;1.92;;;8.50;99.90;;;;;;5053871;28;20385;-74
2022/06/21 03:02:40;;;;;;;2.90;1.80;;;8.60;99.90;;;;;;5071757;28;20040;-74
2022/06/21 03:05:13;;;;;;;5.00;1.67;;;8.60;99.90;;;;;;5071374;28;20044;-75
2022/06/21 03:07:45;;;;;;;8.20;2.20;;;8.60;99.90;;;;;;5071643;28;20127;-75
2022/06/21 03:10:18;;;;;;;2.92;2.15;;;8.70;99.90;;;;;;5071187;28;20055;-75
2022/06/21 03:12:47;;;;;;;3.25;2.15;;;9.30;99.90;;;;;;5071279;28;20045;-74
2022/06/21 03:15:13;;;;;;;6.53;2.30;;;8.80;99.90;;;;;;5053426;28;20052;-75
2022/06/21 03:17:54;;;;;;;4.85;2.50;;;8.80;99.90;;;;;;5071405;28;20048;-74
2022/06/21 03:20:21;;;;;;;4.20;2.80;;;8.80;99.90;;;;;;5070711;28;20052;-75
2022/06/21 03:22:49;;;;;;;3.42;1.98;;;8.90;99.90;;;;;;5071344;28;20411;-75
2022/06/21 03:25:27;;;;;;;7.97;2.10;;;8.90;99.90;;;;;;5070853;28;20479;-75
2022/06/21 03:27:56;;;;;;;4.90;2.58;;;8.90;99.90;;;;;;5071261;28;20126;-75
2022/06/21 03:30:25;;;;;;;4.93;2.17;;;8.90;99.90;;;;;;5071051;28;20462;-74
2022/06/21 03:32:54;;;;;;;5.28;2.10;;;9.20;99.90;;;;;;5053075;28;20045;-74
2022/06/21 03:35:20;;;;;;;7.43;2.47;;;9.00;99.90;;;;;;5070896;28;20127;-74
2022/06/21 03:37:47;;;;;;;4.68;1.98;;;9.00;99.90;;;;;;5053104;28;20079;-74
2022/06/21 03:43:10;;;;;;;7.35;2.55;;;9.10;99.90;;;;;;5071148;28;20120;-75
2022/06/21 03:45:40;;;;;;;5.18;2.53;;;9.20;99.90;;;;;;5070699;28;20048;-74
2022/06/21 03:48:06;;;;;;;4.78;2.55;;;9.20;99.90;;;;;;5070574;28;20087;-74
2022/06/21 03:50:38;;;;;;;7.07;3.00;;;9.30;99.90;;;;;;5052724;28;20084;-74
2022/06/21 03:53:08;;;;;;;9.95;3.08;;;9.30;99.90;;;;;;5070895;28;20098;-75
2022/06/21 03:55:53;;;;;;;6.65;3.75;;;9.30;99.90;;;;;;5070852;28;20044;-75
2022/06/21 03:58:43;;;;;;;5.60;3.72;;;9.40;99.90;;;;;;5070492;28;20056;-74
2022/06/21 04:01:29;;;;;;;5.55;3.10;;;9.40;99.90;;;;;;5052788;28;20144;-75
2022/06/21 04:04:01;;;;;;;7.43;3.30;;;9.60;99.90;;;;;;5056365;28;20059;-75
2022/06/21 04:06:40;;;;;;;7.35;3.60;;;9.50;99.90;;;;;;5052356;28;20110;-74
2022/06/21 04:09:37;;;;;;;7.03;3.70;;;9.50;99.90;;;;;;5070587;28;20124;-75
2022/06/21 04:12:35;;;;;;;7.70;3.90;;;10.20;99.90;;;;;;5052465;28;20052;-75
2022/06/21 04:15:23;;;;;;;6.40;3.67;;;9.60;99.90;;;;;;5070234;28;20036;-75
2022/06/21 04:17:58;;;;;;;6.20;3.42;;;9.60;99.90;;;;;;5070587;28;20044;-75
2022/06/21 04:20:42;;;;;;;8.90;3.90;;;9.60;99.90;;;;;;5070485;28;20453;-74
2022/06/21 04:23:24;;;;;;;9.50;3.92;;;9.60;99.90;;;;;;5070271;28;20523;-74
2022/06/21 04:26:06;;;;;;;10.38;4.18;;;9.70;99.90;;;;;;5070418;28;20086;-75
2022/06/21 04:28:48;;;;;;;11.15;4.43;;;9.70;99.90;;;;;;5070596;28;20044;-75
2022/06/21 04:31:33;;;;;;;9.30;3.90;;;9.70;99.90;;;;;;5052134;28;20049;-75
2022/06/21 04:34:16;;;;;;;10.38;4.53;;;9.80;99.90;;;;;;5074727;28;20106;-75
2022/06/21 04:37:08;;;;;;;8.80;3.97;;;9.80;99.90;;;;;;5074165;28;20134;-76
2022/06/21 04:39:39;;;;;;;9.37;3.90;;;9.80;99.90;;;;;;5012237;28;20122;-76
2022/06/21 04:42:17;;;;;;;10.55;4.75;;;9.90;99.90;;;;;;5012091;28;20380;-76
2022/06/21 04:44:49;;;;;;;8.95;4.65;;;10.00;99.90;;;;;;5011970;28;20081;-76
2022/06/21 04:47:20;;;;;;;7.00;4.38;;;10.10;99.90;;;;;;5011905;28;20555;-75
2022/06/21 04:49:54;;;;;;;10.65;5.32;;;10.20;99.90;;;;;;5011737;28;20048;-76
2022/06/21 04:52:26;;;;;;;14.73;5.47;;;10.30;99.90;;;;;;5011585;28;20085;-76
2022/06/21 04:54:51;;;;;;;15.75;6.63;;;10.40;99.90;;;;;;5011927;28;20049;-75
2022/06/21 04:57:24;;;;;;;17.05;6.43;;;10.50;99.90;;;;;;5011714;28;20121;-75
2022/06/21 05:00:18;;;;;;;16.13;6.93;;;10.60;99.90;;;;;;5011801;28;20061;-75
2022/06/21 05:02:51;;;;;;;13.25;5.78;;;10.80;99.90;;;;;;5009228;28;20054;-75
2022/06/21 05:05:25;;;;;;;18.95;6.88;;;11.00;99.90;;;;;;5011709;28;20469;-75
2022/06/21 05:08:12;;;;;;;14.25;7.72;;;11.10;99.90;;;;;;5011319;28;20057;-74
2022/06/21 05:10:43;;;;;;;11.43;7.07;;;11.30;99.90;;;;;;4995066;28;20054;-75
2022/06/21 05:13:30;;;;;;;11.30;6.75;;;11.70;99.90;;;;;;5011433;28;20046;-75
2022/06/21 05:15:59;;;;;;;12.88;6.57;;;11.60;99.90;;;;;;5023130;28;20404;-75
2022/06/21 05:18:34;;;;;;;11.02;6.28;;;11.70;99.90;;;;;;5055216;28;20519;-75
2022/06/21 05:21:13;;;;;;;16.10;6.43;;;11.80;99.90;;;;;;5073623;28;20044;-75
2022/06/21 05:23:40;;;;;;;13.00;6.57;;;12.00;99.90;;;;;;5055176;28;20048;-75
2022/06/21 05:26:16;;;;;;;15.93;6.35;;;12.10;99.90;;;;;;5073470;28;20036;-75
2022/06/21 05:28:53;;;;;;;15.18;5.45;;;12.10;99.90;;;;;;5072698;28;20130;-75
2022/06/21 05:31:24;;;;;;;13.68;6.10;;;12.30;99.90;;;;;;5073229;28;20071;-75
2022/06/21 05:33:57;;;;;;;15.48;5.82;;;12.40;99.90;;;;;;5073271;28;20101;-75
2022/06/21 05:36:35;;;;;;;10.77;5.15;;;12.50;99.90;;;;;;5073313;28;20099;-75
2022/06/21 05:39:11;;;;;;;17.90;5.05;;;12.60;99.90;;;;;;5072961;28;20041;-75
2022/06/21 05:41:43;;;;;;;13.13;5.10;;;12.80;99.90;;;;;;5073117;28;20462;-75
2022/06/21 05:44:20;;;;;;;12.07;5.47;;;13.00;99.90;;;;;;5072724;28;20491;-75
2022/06/21 05:46:49;;;;;;;10.93;5.90;;;13.10;99.90;;;;;;5073041;28;20111;-75
2022/06/21 05:49:28;;;;;;;10.48;5.57;;;13.20;99.90;;;;;;5073073;28;20040;-75
2022/06/21 05:51:57;;;;;;;8.13;4.97;;;13.30;99.90;;;;;;5055048;28;20411;-75
2022/06/21 05:54:35;;;;;;;11.65;6.00;;;13.40;99.90;;;;;;5072554;28;20063;-75
2022/06/21 05:57:04;;;;;;;11.63;5.47;;;13.60;99.90;;;;;;5072853;28;20052;-75
2022/06/21 05:59:33;;;;;;;9.68;5.32;;;13.70;99.90;;;;;;5072809;28;20056;-75
2022/06/21 06:02:01;;;;;;;11.68;6.15;;;13.80;99.90;;;;;;5072840;28;20118;-75
2022/06/21 06:04:36;;;;;;;13.20;6.32;;;13.90;99.90;;;;;;5072790;28;20053;-75
2022/06/21 06:07:03;;;;;;;13.57;6.18;;;14.10;99.90;;;;;;5072888;28;20071;-76
2022/06/21 06:09:45;;;;;;;10.82;5.63;;;14.20;99.90;;;;;;5072865;28;20036;-76
2022/06/21 06:12:24;;;;;;;10.48;5.63;;;14.20;99.90;;;;;;5072945;28;20084;-75
2022/06/21 06:15:12;;;;;;;11.50;6.28;;;14.40;99.90;;;;;;5054802;28;20079;-75
2022/06/21 06:17:44;;;;;;;10.32;6.20;;;14.50;99.90;;;;;;5072677;28;20048;-75
2022/06/21 06:20:28;;;;;;;11.45;5.63;;;14.60;99.90;;;;;;5072514;28;20070;-75
2022/06/21 06:23:18;;;;;;;12.97;5.30;;;14.60;99.90;;;;;;5072512;28;20044;-75
2022/06/21 06:25:54;;;;;;;9.65;5.10;;;14.70;99.90;;;;;;5071778;28;20083;-75
2022/06/21 06:28:52;;;;;;;14.70;6.03;;;14.80;99.90;;;;;;5072187;28;20055;-75
2022/06/21 06:31:31;;;;;;;11.38;4.38;;;14.90;99.90;;;;;;5037703;28;20381;-74
2022/06/21 06:34:04;;;;;;;8.30;4.60;;;15.10;99.90;;;;;;5072124;28;20087;-75
2022/06/21 06:36:52;;;;;;;7.90;3.88;;;15.20;99.90;;;;;;5071878;28;20044;-75
2022/06/21 06:39:26;;;;;;;12.93;4.57;;;15.10;99.90;;;;;;5072173;28;20079;-75
2022/06/21 06:42:08;;;;;;;11.30;4.55;;;15.70;99.90;;;;;;5071586;28;20055;-75
2022/06/21 06:44:48;;;;;;;9.98;4.40;;;15.20;99.90;;;;;;5072003;28;20048;-75
2022/06/21 06:47:25;;;;;;;6.53;3.40;;;15.30;99.90;;;;;;5072090;28;20041;-76
2022/06/21 06:50:25;;;;;;;11.23;4.20;;;15.50;99.90;;;;;;5054075;28;20382;-76
2022/06/21 06:52:54;;;;;;;9.55;3.70;;;15.50;99.90;;;;;;5053886;28;20063;-76
2022/06/21 06:55:38;;;;;;;10.07;3.75;;;15.60;99.90;;;;;;5052840;28;20052;-75
2022/06/21 06:58:12;;;;;;;10.33;3.50;;;15.80;99.90;;;;;;5053731;28;20053;-76
2022/06/21 07:00:44;;;;;;;10.77;3.60;;;15.90;99.90;;;;;;5071827;28;20705;-75
2022/06/21 07:03:20;;;;;;;11.20;3.25;;;16.30;99.90;;;;;;5071602;28;20045;-76
2022/06/21 07:06:15;;;;;;;7.32;3.53;;;15.90;99.90;;;;;;5071317;28;20044;-76
2022/06/21 07:08:57;;;;;;;9.20;3.05;;;16.10;99.90;;;;;;5071684;28;20044;-75
2022/06/21 07:11:38;;;;;;;9.77;3.55;;;16.30;99.90;;;;;;5071011;28;20093;-76
2022/06/21 07:14:04;;;;;;;11.32;4.95;;;16.60;99.90;;;;;;5071326;28;20395;-75
2022/06/21 07:16:34;;;;;;;14.75;5.03;;;17.20;99.90;;;;;;5071366;28;20049;-76
2022/06/21 07:19:01;;;;;;;10.27;5.15;;;16.90;99.90;;;;;;5071195;28;20127;-76
2022/06/21 07:21:27;;;;;;;13.20;5.07;;;16.60;99.90;;;;;;5071334;28;20057;-76
2022/06/21 07:23:57;;;;;;;12.57;4.30;;;16.90;99.90;;;;;;5071310;28;20049;-76
2022/06/21 07:26:56;;;;;;;8.45;4.03;;;16.70;99.90;;;;;;5053226;28;20056;-76
2022/06/21 07:29:47;;;;;;;10.75;3.55;;;16.80;99.90;;;;;;5071184;28;20084;-76
2022/06/21 07:32:18;;;;;;;8.18;3.50;;;17.10;99.90;;;;;;5071081;28;20752;-76
2022/06/21 07:34:53;;;;;;;10.10;3.38;;;17.40;99.90;;;;;;5070957;28;20044;-76
2022/06/21 07:37:24;;;;;;;6.03;3.03;;;17.60;99.90;;;;;;5070663;28;20446;-76
2022/06/21 07:39:59;;;;;;;6.85;3.30;;;18.00;99.90;;;;;;5070929;28;20484;-76
2022/06/21 07:42:48;;;;;;;8.63;3.17;;;18.00;99.90;;;;;;5070653;28;20055;-76
2022/06/21 07:45:18;;;;;;;10.52;3.85;;;18.20;99.90;;;;;;5052844;28;20048;-75
2022/06/21 07:48:04;;;;;;;7.35;3.35;;;19.10;99.90;;;;;;5070509;28;20511;-78
2022/06/21 07:50:52;;;;;;;8.30;3.40;;;19.10;99.90;;;;;;5070642;28;20055;-76
2022/06/21 07:53:59;;;;;;;9.65;3.35;;;19.20;99.90;;;;;;5070544;28;20529;-77
2022/06/21 07:56:50;;;;;;;6.35;2.53;;;19.60;99.90;;;;;;5083073;23;20430;-78
2022/06/21 07:59:18;;;;;;;13.48;4.72;;;19.70;99.90;;;;;;5081037;28;20083;-79
2022/06/21 08:08:03;;;;;;;6.20;2.80;;;19.60;99.90;;;;;;5090832;28;20048;-78
2022/06/21 08:10:38;;;;;;;7.30;2.40;;;19.70;99.90;;;;;;5090673;28;20044;-78
2022/06/21 08:13:03;;;;;;;;;;;19.90;99.90;;;;;;5091031;28;20060;-78
2022/06/21 08:15:35;;;;;;;8.05;3.80;;;20.00;99.90;;;;;;5090857;28;19935;-77
2022/06/21 08:18:04;;;;;;;10.15;3.70;;;20.20;99.90;;;;;;5090976;28;20047;-79
2022/06/21 08:20:44;;;;;;;7.47;3.67;;;20.20;99.90;;;;;;5090875;28;20040;-77
2022/06/21 08:23:24;;;;;;;6.15;3.00;;;20.20;99.90;;;;;;5091171;28;20048;-78
2022/06/21 08:26:05;;;;;;;8.35;2.97;;;20.30;99.90;;;;;;5091227;28;20391;-77
2022/06/21 08:28:43;;;;;;;8.38;3.33;;;20.40;99.90;;;;;;5072239;28;20048;-77
2022/06/21 08:31:19;;;;;;;13.85;3.28;;;20.60;99.90;;;;;;5090769;28;20043;-78
2022/06/21 08:34:05;;;;;;;9.98;2.83;;;20.50;99.90;;;;;;5090867;28;20044;-77
2022/06/21 08:36:49;;;;;;;8.45;2.60;;;20.50;99.90;;;;;;5090807;28;20044;-76
2022/06/21 08:39:31;;;;;;;8.50;2.78;;;20.80;99.90;;;;;;5090625;28;20071;-73
2022/06/21 08:42:11;;;;;;;9.13;2.40;;;21.10;99.90;;;;;;5090484;28;20044;-76
2022/06/21 08:44:45;;;;;;;6.22;2.30;;;21.30;99.90;;;;;;5090024;28;20526;-78
2022/06/21 08:47:48;;;;;;;6.22;1.90;;;21.30;99.90;;;;;;5090441;28;20051;-77
2022/06/21 08:50:36;;;;;;;6.13;1.98;;;21.00;99.90;;;;;;5090305;28;20410;-77
2022/06/21 08:53:16;;;;;;;6.18;1.95;;;21.30;99.90;;;;;;5090573;28;20063;-77
2022/06/21 08:56:01;;;;;;;6.88;2.10;;;21.20;99.90;;;;;;5090113;28;20090;-76
2022/06/21 08:59:02;;;;;;;8.30;1.80;;;21.40;99.90;;;;;;5090371;28;20109;-77
2022/06/21 09:01:46;;;;;;;9.65;1.50;;;21.70;99.90;;;;;;5007491;28;20062;-77
2022/06/21 09:04:31;;;;;;;5.85;1.58;;;21.70;99.90;;;;;;4991972;28;20056;-76
2022/06/21 09:07:32;;;;;;;5.68;2.00;;;22.00;99.90;;;;;;4991558;28;20054;-77
2022/06/21 09:10:36;;;;;;;10.88;1.98;;;21.90;99.90;;;;;;5008011;28;20052;-78
2022/06/21 09:13:13;;;;;;;8.55;2.20;;;22.10;99.90;;;;;;4930286;29;20095;-75
2022/06/21 09:16:10;;;;;;;5.97;1.55;;;22.20;99.90;;;;;;4930174;29;20062;-77
2022/06/21 09:18:45;;;;;;;8.02;1.73;;;22.10;99.90;;;;;;4932076;29;20066;-76
2022/06/21 09:21:35;;;;;;;8.48;1.63;;;22.00;99.90;;;;;;4934038;29;20040;-76
2022/06/21 09:24:22;;;;;;;11.02;2.35;;;22.30;99.90;;;;;;4934192;29;20127;-77
2022/06/21 09:27:09;;;;;;;5.82;1.80;;;22.30;99.90;;;;;;4902274;29;20059;-75
2022/06/21 09:29:56;;;;;;;7.28;2.03;;;22.20;99.90;;;;;;4934046;29;20056;-76
2022/06/21 09:32:34;;;;;;;14.05;1.60;;;22.30;99.90;;;;;;4933613;29;20111;-78
2022/06/21 09:35:18;;;;;;;7.13;1.67;;;21.70;99.90;;;;;;4933786;29;20090;-77
2022/06/21 09:37:50;;;;;;;8.60;1.52;;;21.40;99.90;;;;;;4947873;28;20068;-76
2022/06/21 09:40:31;;;;;;;4.88;1.45;;;21.50;99.90;;;;;;4991426;28;20746;-76
2022/06/21 09:43:28;;;;;;;3.70;1.50;;;21.40;99.90;;;;;;4991339;28;20608;-77
2022/06/21 09:46:23;;;;;;;6.97;1.60;;;21.60;99.90;;;;;;4974984;28;20057;-76
2022/06/21 09:49:04;;;;;;;6.10;1.40;;;21.90;99.90;;;;;;5051925;28;20124;-75
2022/06/21 09:52:03;;;;;;;6.80;1.40;;;22.30;99.90;;;;;;5093184;28;20105;-78
2022/06/21 09:54:53;;;;;;;4.18;1.20;;;22.60;99.90;;;;;;5074996;28;20051;-75
2022/06/21 09:57:57;;;;;;;4.40;1.50;;;22.70;99.90;;;;;;5093101;28;20052;-77
2022/06/21 10:00:34;;;;;;;6.40;1.70;;;22.80;99.90;;;;;;5093031;28;20088;-77
2022/06/21 10:03:40;;;;;;;5.70;1.65;;;23.10;99.90;;;;;;5093110;28;20040;-78
2022/06/21 10:06:12;;;;;;;4.93;1.48;;;23.20;99.90;;;;;;5010719;28;20070;-78
2022/06/21 10:08:57;;;;;;;7.65;1.55;;;23.10;99.90;;;;;;5010685;28;20097;-78
2022/06/21 10:11:50;;;;;;;4.18;1.20;;;23.20;99.90;;;;;;5010789;28;20077;-76
2022/06/21 10:14:43;;;;;;;6.95;1.20;;;23.20;99.90;;;;;;5010727;28;20054;-77
2022/06/21 10:17:08;;;;;;;3.80;1.20;;;23.40;99.90;;;;;;5010652;28;20038;-77
2022/06/21 10:19:41;;;;;;;8.05;1.75;;;23.40;99.90;;;;;;5011015;28;20382;-78
2022/06/21 10:22:24;;;;;;;3.45;0.95;;;23.50;99.90;;;;;;4978301;28;20066;-78
2022/06/21 10:25:21;;;;;;;6.20;1.15;;;23.70;99.90;;;;;;5010530;28;20132;-77
2022/06/21 10:27:53;;;;;;;7.60;1.63;;;23.60;99.90;;;;;;5010031;28;20168;-77
2022/06/21 10:30:39;;;;;;;6.20;1.27;;;23.20;98.10;;;;;;5009148;28;20551;-77
2022/06/21 10:33:25;;;;;;;4.30;1.40;;;23.30;99.90;;;;;;5009906;28;20577;-77
2022/06/21 10:35:59;;;;;;;3.67;0.90;;;23.50;99.90;;;;;;5009884;28;20054;-77
2022/06/21 10:38:27;;;;;;;;;;;23.50;99.90;;;;;;5010413;28;20451;-77
2022/06/21 10:41:11;;;;;;;5.55;1.10;;;23.70;98.50;;;;;;5022752;28;20340;-77
2022/06/21 10:43:51;;;;;;;6.07;1.33;;;23.70;98.90;;;;;;5092254;28;20085;-78
2022/06/21 10:46:21;;;;;;;7.45;1.02;;;23.90;98.70;;;;;;5092108;28;20048;-76
2022/06/21 10:49:14;;;;;;;4.88;1.20;;;23.80;96.60;;;;;;5091694;28;20487;-78
2022/06/21 10:51:55;;;;;;;10.18;1.42;;;23.80;98.70;;;;;;5091965;28;20055;-77
2022/06/21 10:54:50;;;;;;;5.40;1.42;;;23.80;97.80;;;;;;5092055;28;20131;-77
2022/06/21 10:57:21;;;;;;;7.68;1.65;;;23.90;99.00;;;;;;5091817;28;20056;-78
2022/06/21 11:03:17;;;;;;;3.63;0.90;;;24.20;96.80;;;;;;5091764;28;20052;-77
2022/06/21 11:06:08;;;;;;;2.90;0.90;;;23.90;97.00;;;;;;5091862;28;20131;-77
2022/06/21 11:08:56;;;;;;;3.50;1.13;;;23.60;98.70;;;;;;5073428;28;20071;-77
2022/06/21 11:11:48;;;;;;;3.40;1.00;;;23.70;98.40;;;;;;5091616;28;20044;-78
2022/06/21 11:14:31;;;;;;;4.95;0.93;;;23.90;97.30;;;;;;5057208;28;20499;-77
2022/06/21 11:18:06;;;;;;;4.15;1.00;;;24.00;97.30;;;;;;5091830;28;20052;-77
2022/06/21 11:20:47;;;;;;;4.30;1.40;;;24.20;98.30;;;;;;4977435;28;20089;-75
2022/06/21 11:23:52;;;;;;;4.07;1.17;;;24.30;96.30;;;;;;4993157;28;20481;-77
2022/06/21 11:26:36;;;;;;;5.88;1.10;;;24.40;97.60;;;;;;5026330;22;20056;-78
2022/06/21 11:29:20;;;;;;;5.60;1.45;;;24.50;97.10;;;;;;5051066;28;20110;-78
2022/06/21 11:32:04;;;;;;;7.57;1.13;;;24.60;96.60;;;;;;5189188;23;20049;-79
2022/06/21 11:34:56;;;;;;;3.38;1.02;;;24.70;96.10;;;;;;5070612;28;20056;-77
2022/06/21 11:37:36;;;;;;;2.75;0.88;;;24.50;95.60;;;;;;5008804;28;20050;-78
2022/06/21 11:40:46;;;;;;;5.50;1.10;;;24.00;95.80;;;;;;5056453;22;20503;-78
2022/06/21 11:43:26;;;;;;;5.35;1.23;;;24.20;96.00;;;;;;5091471;28;20075;-76
2022/06/21 11:46:26;;;;;;;2.58;0.90;;;24.30;96.00;;;;;;5091254;28;20040;-77
2022/06/21 11:49:03;;;;;;;3.40;1.05;;;24.30;95.10;;;;;;5097440;22;20105;-77
2022/06/21 11:51:44;;;;;;;4.25;1.13;;;24.30;97.30;;;;;;5088891;28;20419;-77
2022/06/21 11:54:19;;;;;;;7.32;1.20;;;24.50;97.50;;;;;;5091188;28;20395;-76
2022/06/21 11:56:52;;;;;;;2.97;0.73;;;24.60;97.30;;;;;;5090969;28;20070;-75
2022/06/21 11:59:17;;;;;;;4.95;0.90;;;24.80;97.20;;;;;;5090874;28;20218;-77
2022/06/21 12:02:01;;;;;;;6.70;1.80;;;24.70;97.30;;;;;;5089570;28;20126;-78
2022/06/21 12:04:53;;;;;;;5.40;1.35;;;24.80;95.80;;;;;;5090621;28;20060;-77
2022/06/21 12:07:52;;;;;;;5.65;1.17;;;24.80;95.20;;;;;;5090588;28;20074;-77
2022/06/21 12:10:35;;;;;;;3.95;0.80;;;24.80;97.00;;;;;;5089282;28;20060;-77
2022/06/21 12:13:21;;;;;;;3.85;0.70;;;25.10;94.80;;;;;;5085859;22;20152;-75
2022/06/21 12:16:16;;;;;;;3.85;0.90;;;25.20;95.80;;;;;;5070681;28;20045;-78
2022/06/21 12:19:00;;;;;;;4.63;0.88;;;25.30;94.80;;;;;;5077619;22;20110;-77
2022/06/21 12:21:48;;;;;;;2.92;0.90;;;25.30;94.20;;;;;;5082864;22;20048;-78
2022/06/21 12:24:20;;;;;;;5.50;1.02;;;25.20;95.10;;;;;;5089949;28;20083;-78
2022/06/21 12:26:47;;;;;;;3.65;1.00;;;24.90;93.90;;;;;;5072759;28;20598;-79
2022/06/21 12:29:19;;;;;;;4.10;0.88;;;24.90;94.30;;;;;;5090814;28;20044;-79
2022/06/21 12:32:00;;;;;;;2.95;0.95;;;25.10;94.80;;;;;;5072611;28;20043;-77
2022/06/21 12:34:47;;;;;;;2.97;0.85;;;25.10;94.40;;;;;;5091328;22;20826;-77
2022/06/21 12:37:22;;;;;;;2.88;0.90;;;25.10;94.80;;;;;;5045969;28;20699;-79
2022/06/21 12:39:56;;;;;;;6.75;1.30;;;25.10;93.60;;;;;;5070079;28;20047;-77
2022/06/21 12:42:58;;;;;;;3.92;1.05;;;25.30;94.70;;;;;;5070302;28;20048;-78
2022/06/21 12:45:53;;;;;;;2.50;0.85;;;25.40;95.10;;;;;;5070267;28;20053;-77
2022/06/21 12:48:21;;;;;;;5.55;1.00;;;25.90;92.20;;;;;;5070014;28;20036;-77
2022/06/21 12:50:57;;;;;;;3.38;1.15;;;26.20;93.90;;;;;;5070259;28;20036;-78
2022/06/21 12:53:51;;;;;;;3.33;1.23;;;26.20;92.80;;;;;;5071315;28;20056;-78
2022/06/21 12:56:42;;;;;;;3.75;1.00;;;26.30;93.50;;;;;;5074098;28;20040;-76
2022/06/21 12:59:14;;;;;;;3.15;0.88;;;26.50;93.20;;;;;;5074250;28;20060;-77
2022/06/21 13:02:19;;;;;;;2.55;0.90;;;26.70;92.00;;;;;;5056057;28;20558;-78
2022/06/21 13:05:31;;;;;;;5.43;1.15;;;26.70;92.50;;;;;;5039578;28;20516;-78
2022/06/21 13:08:33;;;;;;;3.42;0.98;;;26.50;92.60;;;;;;5055544;28;20048;-76
2022/06/21 13:11:30;;;;;;;5.40;0.85;;;26.20;91.30;;;;;;5073704;28;20048;-77
2022/06/21 13:14:29;;;;;;;5.22;1.45;;;26.00;90.40;;;;;;5073746;28;20056;-78
2022/06/21 13:17:32;;;;;;;3.72;1.05;;;26.00;92.10;;;;;;5073632;28;20483;-78
2022/06/21 13:20:07;;;;;;;2.97;1.02;;;26.00;91.20;;;;;;5073596;28;20066;-78
2022/06/21 13:23:07;;;;;;;3.47;1.15;;;25.80;89.70;;;;;;5073302;28;20052;-77
2022/06/21 13:25:45;;;;;;;3.97;1.08;;;26.00;91.10;;;;;;5073476;28;20415;-77
2022/06/21 13:28:41;;;;;;;3.63;1.23;;;26.10;90.40;;;;;;5073373;28;20044;-79
2022/06/21 13:31:23;;;;;;;5.05;1.20;;;25.90;90.70;;;;;;5073524;28;20053;-77
2022/06/21 13:33:55;;;;;;;3.47;1.10;;;25.70;90.10;;;;;;5073462;28;20045;-77
2022/06/21 13:36:33;;;;;;;4.78;1.10;;;25.80;90.00;;;;;;5073129;28;20087;-77
2022/06/21 13:39:15;;;;;;;4.05;1.20;;;25.60;90.40;;;;;;5073090;28;20040;-78
2022/06/21 13:45:10;;;;;;;4.05;1.27;;;25.50;90.60;;;;;;5073272;28;20049;-77
2022/06/21 13:47:51;;;;;;;2.47;1.10;;;25.50;90.70;;;;;;5073203;28;20124;-78
2022/06/21 13:50:39;;;;;;;4.85;1.33;;;25.50;92.90;;;;;;5073358;28;20040;-78
2022/06/21 13:53:42;;;;;;;6.00;1.40;;;25.30;91.70;;;;;;5073257;28;20051;-78
2022/06/21 13:56:30;;;;;;;3.88;1.15;;;25.20;91.70;;;;;;5055132;28;20048;-76
2022/06/21 13:59:05;;;;;;;5.50;1.33;;;25.10;90.50;;;;;;5054928;28;20051;-78
2022/06/21 14:01:41;;;;;;;5.22;1.60;;;25.00;91.80;;;;;;5072761;28;20091;-77
2022/06/21 14:04:36;;;;;;;7.28;1.30;;;25.20;92.20;;;;;;5072730;28;20051;-78
2022/06/21 14:07:13;;;;;;;4.93;1.30;;;25.10;91.50;;;;;;5072891;28;20044;-77